Time;durP1;ratioP1;P1;durP2;ratioP2;P2;SDS_P1;SDS_P2;PMS_P1;PMS_P2;Temp;Humidity;BMP_temperature;BMP_pressure;BME280_temperature;BME280_humidity;BME280_pressure;Samples;Min_cycle;Max_cycle;Signal;HPM_P1;HPM_P2
2021/11/19 00:00:41;;;;;;;8.10;4.20;;;;;;;3.49;80.27;99088.15;101695;1313;75920;-23
2021/11/19 00:03:09;;;;;;;12.70;4.80;;;;;;;4.16;78.69;99077.04;101660;1313;72632;-23
2021/11/19 00:05:40;;;;;;;7.30;4.00;;;;;;;4.54;76.79;99076.01;101945;1317;61204;-23
2021/11/19 00:08:09;;;;;;;8.10;4.20;;;;;;;4.44;76.85;99076.90;101687;1313;61144;-23
2021/11/19 00:10:37;;;;;;;7.70;3.70;;;;;;;4.23;77.44;99076.37;101929;1313;75506;-24
2021/11/19 00:13:07;;;;;;;10.50;5.20;;;;;;;3.97;78.32;99071.05;102044;1314;74203;-24
2021/11/19 00:15:35;;;;;;;8.30;4.60;;;;;;;3.78;78.73;99071.71;102005;1313;73166;-22
2021/11/19 00:18:03;;;;;;;7.20;4.00;;;;;;;3.58;79.68;99064.69;101595;1316;62869;-22
2021/11/19 00:20:32;;;;;;;11.50;4.20;;;;;;;3.99;78.79;99065.81;102011;1313;61113;-23
2021/11/19 00:23:08;;;;;;;8.00;4.50;;;;;;;4.34;77.28;99062.70;102000;1313;75535;-22
2021/11/19 00:25:36;;;;;;;8.10;4.20;;;;;;;4.35;77.07;99060.96;101954;1313;76300;-23
2021/11/19 00:28:05;;;;;;;6.80;3.90;;;;;;;4.18;77.48;99051.91;101860;1313;74499;-23
2021/11/19 00:30:35;;;;;;;6.40;4.40;;;;;;;3.91;78.61;99050.08;101635;1313;61250;-22
2021/11/19 00:33:03;;;;;;;8.80;3.90;;;;;;;3.72;79.41;99045.76;101697;1316;62145;-23
2021/11/19 00:35:33;;;;;;;6.80;4.50;;;;;;;4.12;78.72;99042.60;101725;1314;74722;-22
2021/11/19 00:38:04;;;;;;;7.10;4.00;;;;;;;4.54;77.05;99036.50;101746;1314;75149;-23
2021/11/19 00:40:43;;;;;;;8.60;4.10;;;;;;;4.52;76.86;99031.11;101768;1319;72372;-23
2021/11/19 00:43:11;;;;;;;7.50;3.70;;;;;;;4.28;77.42;99025.70;101782;1314;61916;-23
2021/11/19 00:45:39;;;;;;;7.70;4.50;;;;;;;4.06;78.13;99018.52;101730;1313;61782;-22
2021/11/19 00:48:10;;;;;;;10.20;4.60;;;;;;;3.86;78.94;99013.06;101689;1314;74180;-23
2021/11/19 00:50:44;;;;;;;9.30;4.40;;;;;;;4.27;78.32;99014.45;101672;1313;76572;-22
2021/11/19 00:53:13;;;;;;;8.40;4.30;;;;;;;4.61;76.98;99013.55;101622;1315;74448;-23
2021/11/19 00:55:42;;;;;;;7.70;4.50;;;;;;;4.56;76.81;99011.25;101916;1313;61696;-23
2021/11/19 00:58:11;;;;;;;6.10;3.70;;;;;;;4.33;77.55;99012.38;101733;1313;61209;-22
2021/11/19 01:00:43;;;;;;;11.60;4.50;;;;;;;4.10;78.17;99000.25;101933;1313;75653;-23
2021/11/19 01:03:15;;;;;;;8.40;3.70;;;;;;;3.92;79.20;98999.53;101704;1314;76395;-23
2021/11/19 01:09:56;;;;;;;9.40;4.30;;;;;;;4.79;76.27;98991.59;102196;1313;61248;-23
2021/11/19 01:12:31;;;;;;;9.20;5.00;;;;;;;4.62;76.46;98982.03;101797;1319;61254;-23
2021/11/19 01:15:14;;;;;;;9.00;4.60;;;;;;;4.35;77.21;98978.73;102104;1316;74176;-23
2021/11/19 01:17:48;;;;;;;8.30;4.40;;;;;;;4.05;77.98;98972.70;101699;1319;75763;-22
2021/11/19 01:20:32;;;;;;;5.10;3.20;;;;;;;4.18;78.32;98971.45;101663;1317;74185;-23
2021/11/19 01:23:02;;;;;;;7.60;4.40;;;;;;;4.71;76.61;98963.08;101666;1317;61218;-22
2021/11/19 01:25:32;;;;;;;11.40;4.70;;;;;;;4.70;76.12;98957.31;101657;1316;61190;-23
2021/11/19 01:28:01;;;;;;;8.60;4.20;;;;;;;4.52;76.63;98963.15;101616;1319;75608;-22
2021/11/19 01:30:32;;;;;;;8.20;4.80;;;;;;;4.25;77.65;98964.01;101703;1313;75318;-23
2021/11/19 01:33:08;;;;;;;9.70;5.00;;;;;;;4.02;78.34;98960.98;101701;1313;73530;-23
2021/11/19 01:35:50;;;;;;;8.30;4.30;;;;;;;3.95;79.25;98958.64;101878;1313;61198;-23
2021/11/19 01:38:30;;;;;;;7.30;4.20;;;;;;;4.55;77.51;98951.14;101928;1313;61305;-22
2021/11/19 01:41:25;;;;;;;12.50;4.40;;;;;;;4.74;76.48;98946.96;101796;1313;74540;-23
2021/11/19 01:43:55;;;;;;;12.40;3.70;;;;;;;4.65;76.72;98945.57;102157;1314;76164;-23
2021/11/19 01:46:26;;;;;;;7.70;5.00;;;;;;;4.45;77.35;98943.64;101708;1316;72197;-23
2021/11/19 01:48:55;;;;;;;7.60;4.70;;;;;;;4.17;78.49;98939.23;101665;1319;61923;-23
2021/11/19 01:51:51;;;;;;;9.10;4.40;;;;;;;4.11;79.57;98940.75;101840;1319;62068;-23
2021/11/19 01:54:25;;;;;;;8.50;3.70;;;;;;;4.66;77.83;98939.66;102253;1314;75513;-24
2021/11/19 01:56:57;;;;;;;9.30;4.20;;;;;;;4.75;77.39;98934.50;101803;1316;75945;-23
2021/11/19 01:59:38;;;;;;;7.50;4.20;;;;;;;4.58;77.81;98924.35;101858;1316;73103;-23
2021/11/19 02:02:13;;;;;;;8.50;4.70;;;;;;;4.31;78.82;98914.37;101908;1320;62431;-23
2021/11/19 02:04:50;;;;;;;8.90;5.20;;;;;;;4.22;79.76;98912.64;102145;1313;61931;-23
2021/11/19 02:07:27;;;;;;;9.20;4.70;;;;;;;4.67;78.69;98912.80;101833;1314;74929;-24
2021/11/19 02:10:43;;;;;;;6.50;4.40;;;;;;;4.75;78.51;98911.13;102186;1316;76199;-23
2021/11/19 02:13:30;;;;;;;4.20;2.90;;;;;;;4.63;78.59;98907.55;102071;1317;74568;-26
2021/11/19 02:16:09;;;;;;;7.40;4.60;;;;;;;4.40;79.37;98906.64;101884;1316;61259;-25
2021/11/19 02:18:41;;;;;;;9.50;5.30;;;;;;;4.25;80.00;98901.44;101931;1316;61108;-25
2021/11/19 02:21:16;;;;;;;11.20;5.20;;;;;;;4.63;79.34;98900.99;101796;1316;75584;-31
2021/11/19 02:23:52;;;;;;;10.70;5.00;;;;;;;4.79;78.57;98899.38;101888;1319;75212;-25
2021/11/19 02:26:24;;;;;;;10.60;4.70;;;;;;;4.64;78.89;98890.77;101909;1316;73696;-24
2021/11/19 02:28:53;;;;;;;11.20;6.00;;;;;;;4.45;79.38;98886.44;101892;1316;62140;-25
2021/11/19 02:31:26;;;;;;;7.90;4.70;;;;;;;4.28;80.05;98882.55;101967;1316;62206;-26
2021/11/19 02:33:55;;;;;;;;;;;;;;;4.63;79.53;98881.60;102091;1317;75548;-23
2021/11/19 02:36:35;;;;;;;8.80;4.90;;;;;;;4.81;78.73;98881.52;102131;1320;75908;-25
2021/11/19 02:39:15;;;;;;;8.70;4.40;;;;;;;4.73;78.89;98879.41;102174;1316;74599;-23
2021/11/19 02:41:48;;;;;;;10.40;4.40;;;;;;;4.55;79.36;98868.80;101888;1316;61303;-23
2021/11/19 02:44:20;;;;;;;9.70;4.80;;;;;;;4.33;80.11;98867.34;101855;1316;62151;-23
2021/11/19 02:46:55;;;;;;;6.90;3.60;;;;;;;4.63;79.89;98862.30;101776;1316;73211;-23
2021/11/19 02:49:25;;;;;;;11.50;6.30;;;;;;;4.91;78.65;98854.28;102064;1313;74748;-23
2021/11/19 02:51:53;;;;;;;12.70;5.50;;;;;;;4.82;78.69;98855.33;102286;1313;74602;-23
2021/11/19 02:54:28;;;;;;;11.70;6.20;;;;;;;4.57;79.42;98849.23;102110;1313;61170;-23
2021/11/19 02:56:57;;;;;;;11.80;5.80;;;;;;;4.40;80.60;98840.45;101534;1313;378605;-23
2021/11/19 02:59:26;;;;;;;10.70;6.00;;;;;;;4.88;79.37;98835.67;101817;1317;72309;-23
2021/11/19 03:02:09;;;;;;;12.20;6.30;;;;;;;5.10;78.10;98824.89;102285;1313;76133;-23
2021/11/19 03:04:49;;;;;;;12.40;6.10;;;;;;;4.98;78.26;98819.63;101877;1314;71751;-22
2021/11/19 03:07:18;;;;;;;10.10;5.70;;;;;;;4.75;78.83;98813.13;101916;1313;62295;-23
2021/11/19 03:10:01;;;;;;;11.10;6.70;;;;;;;4.50;79.52;98804.48;102159;1316;61246;-23
2021/11/19 03:12:32;;;;;;;11.60;6.00;;;;;;;4.65;79.84;98800.61;101929;1316;75821;-23
2021/11/19 03:15:04;;;;;;;13.10;5.00;;;;;;;5.10;78.13;98803.37;101883;1316;74732;-23
2021/11/19 03:17:33;;;;;;;12.10;7.00;;;;;;;5.07;77.87;98803.42;102061;1316;74423;-23
2021/11/19 03:20:03;;;;;;;12.40;5.70;;;;;;;4.88;78.21;98803.16;102258;1313;62353;-23
2021/11/19 03:22:33;;;;;;;9.20;4.80;;;;;;;4.63;79.09;98803.70;101749;1316;61117;-23
2021/11/19 03:25:04;;;;;;;10.50;6.00;;;;;;;4.53;79.76;98804.12;102119;1320;75704;-23
2021/11/19 03:27:32;;;;;;;9.60;5.40;;;;;;;5.04;78.60;98812.02;101796;1316;75183;-23
2021/11/19 03:30:12;;;;;;;11.70;6.80;;;;;;;5.24;77.52;98810.95;102253;1314;74478;-23
2021/11/19 03:32:42;;;;;;;8.40;5.00;;;;;;;5.04;77.69;98805.67;101840;1320;61189;-23
2021/11/19 03:35:14;;;;;;;12.90;6.70;;;;;;;4.87;78.17;98792.41;102234;1314;61186;-23
2021/11/19 03:37:43;;;;;;;8.50;5.30;;;;;;;4.61;79.31;98784.39;101809;1314;74357;-23
2021/11/19 03:40:14;;;;;;;11.30;5.90;;;;;;;4.78;79.19;98787.82;101809;1319;75827;-23
2021/11/19 03:42:43;;;;;;;15.20;6.70;;;;;;;5.14;77.84;98782.80;101906;1316;75047;-23
2021/11/19 03:45:14;;;;;;;12.50;6.30;;;;;;;5.21;77.29;98781.89;102276;1313;61829;-23
2021/11/19 03:47:46;;;;;;;14.80;6.90;;;;;;;5.04;77.74;98781.75;101807;1319;61221;-23
2021/11/19 03:50:35;;;;;;;11.30;5.00;;;;;;;4.79;78.33;98777.23;101962;1320;72188;-23
2021/11/19 03:53:04;;;;;;;8.90;5.40;;;;;;;4.76;79.20;98780.04;101893;1316;75945;-23
2021/11/19 03:55:34;;;;;;;11.60;5.80;;;;;;;5.23;77.66;98770.73;102129;1313;74247;-23
2021/11/19 03:58:03;;;;;;;13.10;7.70;;;;;;;5.29;77.14;98770.52;101854;1316;61313;-23
2021/11/19 04:00:36;;;;;;;12.80;6.80;;;;;;;5.11;77.60;98767.01;101693;1314;61186;-23
2021/11/19 04:03:06;;;;;;;15.30;7.70;;;;;;;4.84;78.34;98760.92;101638;1316;74273;-23
2021/11/19 04:05:38;;;;;;;11.10;4.80;;;;;;;4.63;79.15;98750.87;102095;1314;76157;-23
2021/11/19 04:08:07;;;;;;;14.10;6.90;;;;;;;4.80;79.37;98752.95;101685;1316;73537;-23
2021/11/19 04:10:46;;;;;;;8.40;5.20;;;;;;;5.19;77.96;98745.52;102084;1313;61405;-23
2021/11/19 04:13:14;;;;;;;15.30;7.20;;;;;;;5.18;77.80;98748.29;101906;1316;61310;-23
2021/11/19 04:15:47;;;;;;;12.10;7.10;;;;;;;5.01;78.24;98745.63;101802;1316;75718;-23
2021/11/19 04:18:15;;;;;;;11.80;7.30;;;;;;;4.78;78.83;98736.70;101741;1315;74029;-23
2021/11/19 04:20:43;;;;;;;15.50;6.60;;;;;;;4.54;80.31;98735.59;102030;1313;73391;-23
2021/11/19 04:23:12;;;;;;;13.60;7.70;;;;;;;4.98;79.49;98730.30;102070;1313;61195;-23
2021/11/19 04:25:41;;;;;;;11.70;6.90;;;;;;;5.33;78.02;98724.67;102003;1317;61210;-23
2021/11/19 04:28:12;;;;;;;16.10;7.90;;;;;;;5.29;77.71;98720.42;102083;1313;76154;-23
2021/11/19 04:31:01;;;;;;;12.70;7.30;;;;;;;5.00;78.56;98721.79;102271;1314;76456;-23
2021/11/19 04:33:33;;;;;;;14.20;8.20;;;;;;;4.73;79.62;98718.48;102273;1314;73466;-23
2021/11/19 04:36:02;;;;;;;11.80;6.60;;;;;;;4.65;80.47;98719.14;102299;1316;61948;-23
2021/11/19 04:38:31;;;;;;;8.50;5.60;;;;;;;5.20;79.07;98719.10;101911;1319;61193;-23
2021/11/19 04:41:01;;;;;;;8.90;5.10;;;;;;;5.34;78.04;98708.73;102290;1316;75637;-23
2021/11/19 04:43:30;;;;;;;14.80;7.80;;;;;;;5.18;78.34;98707.36;102094;1317;76101;-24
2021/11/19 04:45:59;;;;;;;14.80;7.50;;;;;;;4.92;79.22;98701.77;101991;1320;74555;-23
2021/11/19 04:48:34;;;;;;;7.20;4.50;;;;;;;4.73;79.82;98697.98;102281;1317;61104;-23
2021/11/19 04:51:12;;;;;;;12.60;5.70;;;;;;;4.91;80.07;98695.46;102282;1314;62177;-25
2021/11/19 04:53:42;;;;;;;9.80;5.70;;;;;;;5.29;78.63;98690.83;101903;1317;74616;-25
2021/11/19 04:56:11;;;;;;;12.60;8.20;;;;;;;5.26;78.45;98688.31;102058;1319;74529;-25
2021/11/19 04:58:40;;;;;;;14.90;6.60;;;;;;;5.08;78.80;98692.86;102248;1317;74230;-24
2021/11/19 05:01:17;;;;;;;11.60;5.50;;;;;;;4.84;79.72;98689.41;102291;1313;61353;-24
2021/11/19 05:04:12;;;;;;;14.30;7.10;;;;;;;4.94;80.21;98689.96;102155;1313;61207;-22
2021/11/19 05:06:43;;;;;;;17.20;7.10;;;;;;;5.28;78.79;98693.27;102322;1320;74621;-22
2021/11/19 05:09:11;;;;;;;10.20;5.50;;;;;;;5.31;78.53;98691.59;101915;1316;76162;-22
2021/11/19 05:11:55;;;;;;;12.10;6.20;;;;;;;5.09;79.10;98680.77;102187;1316;74653;-22
2021/11/19 05:14:25;;;;;;;6.50;3.90;;;;;;;4.81;80.09;98675.83;101946;1316;61197;-22
2021/11/19 05:16:53;;;;;;;11.50;5.40;;;;;;;4.92;80.41;98670.67;102251;1314;61194;-24
2021/11/19 05:19:30;;;;;;;12.40;7.10;;;;;;;5.31;78.93;98663.17;102214;1316;75661;-25
2021/11/19 05:21:59;;;;;;;14.20;5.40;;;;;;;5.29;78.93;98665.86;102282;1317;74971;-25
2021/11/19 05:24:31;;;;;;;9.30;5.00;;;;;;;5.15;79.16;98658.70;102282;1320;74450;-25
2021/11/19 05:27:00;;;;;;;8.40;4.30;;;;;;;4.91;79.85;98650.98;102280;1313;61192;-25
2021/11/19 05:29:28;;;;;;;9.80;4.80;;;;;;;4.92;80.46;98658.07;102137;1320;62007;-25
2021/11/19 05:31:57;;;;;;;8.70;4.80;;;;;;;5.40;78.78;98662.05;102185;1314;74520;-25
2021/11/19 05:34:26;;;;;;;6.30;4.40;;;;;;;5.46;78.32;98665.29;102241;1320;76136;-23
2021/11/19 05:36:56;;;;;;;9.70;5.30;;;;;;;5.23;78.59;98652.47;102133;1316;74190;-23
2021/11/19 05:39:25;;;;;;;12.90;5.50;;;;;;;5.03;79.32;98647.79;102207;1313;61196;-24
2021/11/19 05:41:54;;;;;;;9.60;5.20;;;;;;;4.84;80.10;98653.11;102207;1313;62133;-25
2021/11/19 05:44:23;;;;;;;10.00;5.00;;;;;;;5.18;79.27;98645.91;102272;1313;71909;-25
2021/11/19 05:46:57;;;;;;;11.40;6.10;;;;;;;5.44;77.98;98645.76;101876;1316;75343;-25
2021/11/19 05:49:25;;;;;;;8.60;4.60;;;;;;;5.33;78.34;98641.18;101636;1317;73016;-26
2021/11/19 05:51:58;;;;;;;12.20;5.00;;;;;;;5.08;79.06;98630.76;101866;1319;61221;-25
2021/11/19 05:54:29;;;;;;;7.40;3.30;;;;;;;4.85;80.14;98630.14;101790;1317;61195;-25
2021/11/19 05:56:57;;;;;;;11.60;5.40;;;;;;;5.21;79.26;98625.40;101774;1316;74301;-25
2021/11/19 05:59:30;;;;;;;8.30;5.10;;;;;;;5.54;78.07;98624.63;102194;1317;75903;-25
2021/11/19 06:02:13;;;;;;;7.50;3.20;;;;;;;5.36;78.39;98617.23;101928;1316;74504;-25
2021/11/19 06:05:03;;;;;;;8.50;4.70;;;;;;;5.17;78.92;98608.64;102103;1316;61254;-25
2021/11/19 06:07:44;;;;;;;7.40;3.90;;;;;;;4.91;79.94;98604.30;101743;1316;61266;-25
2021/11/19 06:10:15;;;;;;;7.20;4.20;;;;;;;5.12;80.04;98603.14;101645;1316;74799;-25
2021/11/19 06:12:47;;;;;;;11.50;4.70;;;;;;;5.57;78.40;98598.95;101699;1320;74855;-25
2021/11/19 06:15:25;;;;;;;8.50;4.60;;;;;;;5.53;78.23;98599.40;101711;1313;74698;-25
2021/11/19 06:17:59;;;;;;;8.20;4.50;;;;;;;5.30;78.94;98595.60;101643;1317;61164;-24
2021/11/19 06:20:38;;;;;;;4.80;2.50;;;;;;;5.06;79.81;98596.82;101713;1317;61935;-25
2021/11/19 06:23:20;;;;;;;4.40;2.50;;;;;;;5.11;80.43;98589.96;101722;1314;74833;-22
2021/11/19 06:25:48;;;;;;;10.40;4.50;;;;;;;5.53;78.96;98584.92;101649;1316;75089;-23
2021/11/19 06:28:29;;;;;;;5.40;3.10;;;;;;;5.47;78.75;98579.08;101759;1314;74804;-22
2021/11/19 06:30:59;;;;;;;10.70;4.30;;;;;;;5.17;79.51;98570.63;101682;1316;61236;-24
2021/11/19 06:33:28;;;;;;;7.50;3.70;;;;;;;4.98;80.15;98566.35;102086;1313;62122;-25
2021/11/19 06:35:57;;;;;;;7.00;3.00;;;;;;;5.17;80.22;98563.58;101963;1316;75714;-25
2021/11/19 06:38:27;;;;;;;6.10;3.90;;;;;;;5.55;78.66;98565.89;102286;1316;74258;-22
2021/11/19 06:41:01;;;;;;;8.10;3.90;;;;;;;5.48;78.72;98558.59;101928;1320;74479;-25
2021/11/19 06:43:29;;;;;;;6.10;4.10;;;;;;;5.25;79.27;98552.35;101863;1319;61189;-25
2021/11/19 06:46:20;;;;;;;5.10;3.20;;;;;;;4.95;81.04;98556.56;102017;1313;61236;-25
2021/11/19 06:49:10;;;;;;;7.60;3.50;;;;;;;5.36;80.10;98549.20;102252;1313;74811;-25
2021/11/19 06:52:05;;;;;;;7.30;3.30;;;;;;;5.63;78.92;98540.17;102009;1316;76004;-25
2021/11/19 06:54:38;;;;;;;5.90;3.30;;;;;;;5.55;79.05;98540.52;102152;1320;74282;-23
2021/11/19 06:57:40;;;;;;;6.50;3.50;;;;;;;5.17;80.76;98533.09;101715;1314;61198;-25
2021/11/19 07:00:16;;;;;;;7.30;3.00;;;;;;;5.01;81.73;98525.73;101969;1316;61304;-23
2021/11/19 07:02:44;;;;;;;5.70;3.00;;;;;;;5.44;80.59;98526.10;102069;1313;76297;-24
2021/11/19 07:05:14;;;;;;;3.50;2.20;;;;;;;5.70;79.27;98521.42;101939;1316;76254;-24
2021/11/19 07:07:42;;;;;;;4.70;2.10;;;;;;;5.65;79.13;98519.39;101719;1318;74524;-24
2021/11/19 07:10:11;;;;;;;8.70;3.30;;;;;;;5.41;80.07;98508.79;101848;1316;61191;-23
2021/11/19 07:12:40;;;;;;;3.30;2.60;;;;;;;5.16;81.17;98518.01;101899;1320;62125;-23
2021/11/19 07:15:10;;;;;;;3.10;2.40;;;;;;;5.23;81.66;98511.20;101996;1319;74215;-23
2021/11/19 07:17:40;;;;;;;6.70;2.50;;;;;;;5.71;79.99;98510.20;102068;1317;76127;-23
2021/11/19 07:20:11;;;;;;;3.60;2.50;;;;;;;5.85;78.99;98502.83;102081;1316;73440;-23
2021/11/19 07:22:40;;;;;;;4.10;2.30;;;;;;;5.64;79.59;98499.77;101902;1316;62153;-23
2021/11/19 07:25:12;;;;;;;4.80;2.30;;;;;;;5.39;80.40;98504.58;101745;1316;61182;-22
2021/11/19 07:27:41;;;;;;;4.40;2.70;;;;;;;5.23;81.44;98501.19;101971;1316;75538;-22
2021/11/19 07:30:15;;;;;;;3.50;2.00;;;;;;;5.60;80.10;98491.11;101797;1319;76126;-23
2021/11/19 07:33:10;;;;;;;3.70;1.70;;;;;;;5.75;79.39;98494.02;101904;1317;73574;-23
2021/11/19 07:36:08;;;;;;;5.40;2.60;;;;;;;5.56;80.07;98492.77;102149;1316;61159;-23
2021/11/19 07:38:55;;;;;;;2.80;1.70;;;;;;;5.37;80.98;98497.38;101934;1316;62067;-23
2021/11/19 07:41:47;;;;;;;3.30;2.30;;;;;;;5.35;81.69;98498.18;101948;1319;73654;-23
2021/11/19 07:44:42;;;;;;;1.80;1.40;;;;;;;5.90;79.53;98489.02;101710;1320;74890;-22
2021/11/19 07:47:17;;;;;;;4.50;1.70;;;;;;;5.95;79.10;98474.01;102069;1313;74463;-23
2021/11/19 07:49:45;;;;;;;4.00;1.70;;;;;;;5.82;79.80;98483.73;102063;1310;61214;-23
2021/11/19 07:52:18;;;;;;;2.20;1.60;;;;;;;5.53;80.77;98473.55;102297;1317;61639;-22
2021/11/19 07:54:47;;;;;;;1.80;1.40;;;;;;;5.34;81.99;98470.18;102266;1313;75533;-22
2021/11/19 07:57:17;;;;;;;3.20;1.70;;;;;;;5.76;81.13;98475.91;102271;1313;76505;-22
2021/11/19 07:59:46;;;;;;;2.60;1.90;;;;;;;5.93;80.16;98469.03;102265;1313;73204;-22
2021/11/19 08:02:15;;;;;;;3.20;1.70;;;;;;;5.79;80.63;98469.31;102268;1317;61184;-22
2021/11/19 08:04:45;;;;;;;3.40;1.90;;;;;;;5.61;81.25;98468.30;102143;1319;61158;-22
2021/11/19 08:07:29;;;;;;;1.70;1.30;;;;;;;5.45;82.46;98461.16;102102;1319;75607;-23
2021/11/19 08:10:18;;;;;;;3.10;1.60;;;;;;;5.92;81.10;98468.02;102277;1313;75209;-23
2021/11/19 08:12:47;;;;;;;2.80;1.80;;;;;;;6.12;80.15;98460.47;102225;1313;73569;-23
2021/11/19 08:15:22;;;;;;;2.20;1.40;;;;;;;6.02;80.80;98457.20;102150;1312;61922;-24
2021/11/19 08:17:53;;;;;;;0.90;0.80;;;;;;;5.80;81.66;98451.15;101909;1316;61281;-23
2021/11/19 08:20:36;;;;;;;1.50;1.10;;;;;;;5.66;82.44;98448.64;101970;1316;75411;-23
2021/11/19 08:23:06;;;;;;;2.30;1.40;;;;;;;6.09;81.19;98455.14;102102;1319;75852;-23
2021/11/19 08:25:35;;;;;;;1.80;1.60;;;;;;;6.19;80.75;98455.79;101732;1317;73061;-23
2021/11/19 08:28:26;;;;;;;1.60;1.30;;;;;;;5.97;81.26;98450.97;102001;1313;61179;-23
2021/11/19 08:30:55;;;;;;;1.50;0.90;;;;;;;5.72;82.61;98448.77;102040;1319;61247;-23
2021/11/19 08:33:23;;;;;;;1.60;1.30;;;;;;;6.02;81.88;98452.37;102050;1313;74828;-23
2021/11/19 08:35:52;;;;;;;1.70;1.20;;;;;;;6.24;80.73;98439.91;102054;1319;75872;-23
2021/11/19 08:38:22;;;;;;;2.00;1.20;;;;;;;6.13;81.35;98449.00;102101;1313;74335;-23
2021/11/19 08:40:51;;;;;;;2.30;1.50;;;;;;;6.08;81.50;98441.41;101869;1320;61919;-24
2021/11/19 08:43:32;;;;;;;1.70;1.30;;;;;;;5.88;82.40;98443.00;101652;1316;61116;-24
2021/11/19 08:46:02;;;;;;;2.00;1.40;;;;;;;6.02;82.46;98446.66;101673;1317;74615;-24
2021/11/19 08:48:31;;;;;;;1.40;1.20;;;;;;;6.40;80.92;98439.30;102069;1313;75841;-24
2021/11/19 08:51:01;;;;;;;2.30;1.50;;;;;;;6.34;81.08;98447.63;101904;1316;71147;-24
2021/11/19 08:53:29;;;;;;;2.00;1.20;;;;;;;6.18;81.81;98440.53;101638;1317;62197;-24
2021/11/19 08:55:59;;;;;;;3.60;1.80;;;;;;;6.02;82.57;98441.83;102082;1320;61204;-24
2021/11/19 08:58:34;;;;;;;2.50;1.30;;;;;;;6.26;82.02;98441.86;101768;1316;75606;-24
2021/11/19 09:01:03;;;;;;;2.70;1.80;;;;;;;6.48;80.92;98437.30;101782;1320;75285;-24
2021/11/19 09:03:31;;;;;;;2.10;1.70;;;;;;;6.34;81.33;98446.77;101718;1316;72893;-24
2021/11/19 09:06:01;;;;;;;1.90;1.50;;;;;;;6.07;82.70;98442.55;102270;1313;61929;-23
2021/11/19 09:08:30;;;;;;;2.30;1.50;;;;;;;5.99;82.81;98435.50;101707;1316;61136;-23
2021/11/19 09:10:59;;;;;;;2.50;1.60;;;;;;;6.36;81.78;98434.42;102300;1320;75347;-23
2021/11/19 09:13:29;;;;;;;2.30;1.40;;;;;;;6.24;82.14;98431.10;101769;1317;77097;-23
2021/11/19 09:15:57;;;;;;;2.60;1.90;;;;;;;6.18;82.41;98421.42;102060;1316;73014;-23
2021/11/19 09:18:36;;;;;;;2.00;1.70;;;;;;;5.99;83.25;98419.15;102128;1319;62134;-23
2021/11/19 09:21:22;;;;;;;2.10;1.70;;;;;;;6.10;83.05;98414.55;101867;1319;61066;-24
2021/11/19 09:23:56;;;;;;;2.60;1.60;;;;;;;6.40;82.27;98416.73;101675;1317;72825;-23
2021/11/19 09:26:46;;;;;;;3.20;2.20;;;;;;;6.27;82.81;98420.59;101727;1317;75910;-24
2021/11/19 09:29:28;;;;;;;1.30;1.20;;;;;;;6.12;83.68;98419.75;101851;1316;74605;-24
2021/11/19 09:31:56;;;;;;;2.00;1.50;;;;;;;6.31;83.11;98408.55;101851;1313;62601;-28
2021/11/19 09:34:25;;;;;;;2.60;2.00;;;;;;;6.58;82.01;98420.73;101792;1320;61133;-25
2021/11/19 09:36:54;;;;;;;2.50;2.20;;;;;;;6.33;82.92;98422.16;102240;1314;74440;-24
2021/11/19 09:39:26;;;;;;;2.50;1.70;;;;;;;6.14;83.76;98408.05;102170;1319;76653;-24
2021/11/19 09:42:29;;;;;;;1.80;1.50;;;;;;;6.15;84.15;98415.25;101847;1313;74535;-24
2021/11/19 09:44:57;;;;;;;2.50;1.50;;;;;;;6.44;82.38;98388.80;101838;1319;61201;-24
2021/11/19 09:47:44;;;;;;;2.60;1.90;;;;;;;6.36;82.66;98391.15;102157;1319;61195;-24
2021/11/19 09:50:27;;;;;;;4.60;2.10;;;;;;;6.14;83.63;98388.41;101985;1319;75396;-24
2021/11/19 09:53:34;;;;;;;2.00;1.60;;;;;;;6.24;83.90;98396.34;101869;1319;76075;-24
2021/11/19 09:56:24;;;;;;;3.70;2.70;;;;;;;6.33;83.68;98400.31;101396;1325;74287;-24
2021/11/19 09:59:01;;;;;;;3.40;2.30;;;;;;;6.25;84.29;98389.20;101258;1328;61574;-24
2021/11/19 10:02:01;;;;;;;3.60;2.30;;;;;;;6.05;85.25;98384.75;101217;1325;61409;-24
2021/11/19 10:04:58;;;;;;;2.50;1.70;;;;;;;6.48;83.75;98378.73;100815;1333;75312;-24
2021/11/19 10:07:35;;;;;;;2.50;2.10;;;;;;;6.48;83.70;98375.44;100684;1331;76108;-24
2021/11/19 10:10:03;;;;;;;2.30;1.90;;;;;;;6.30;84.66;98373.10;100729;1328;74543;-24
2021/11/19 10:12:57;;;;;;;2.00;1.70;;;;;;;6.23;85.13;98372.08;100873;1327;61709;-24
2021/11/19 10:15:35;;;;;;;2.50;1.70;;;;;;;6.62;83.57;98371.29;100773;1332;61100;-24
2021/11/19 10:18:18;;;;;;;2.80;2.20;;;;;;;6.67;83.17;98367.41;100477;1334;75451;-23
2021/11/19 10:21:14;;;;;;;2.60;2.10;;;;;;;6.32;84.59;98357.29;100753;1327;76114;-23
2021/11/19 10:24:04;;;;;;;5.00;2.60;;;;;;;6.48;84.67;98371.96;100560;1326;73586;-22
2021/11/19 10:26:35;;;;;;;3.10;2.80;;;;;;;6.45;84.22;98358.20;100464;1330;61342;-23
2021/11/19 10:29:06;;;;;;;2.50;2.00;;;;;;;6.46;84.14;98367.27;100485;1331;62299;-22
2021/11/19 10:31:35;;;;;;;2.70;2.10;;;;;;;6.32;84.77;98346.80;100732;1334;75731;-22
2021/11/19 10:34:22;;;;;;;6.60;2.00;;;;;;;6.55;84.20;98369.92;101644;1319;76223;-22
2021/11/19 10:37:09;;;;;;;3.70;2.50;;;;;;;6.63;83.60;98361.58;101136;1319;74528;-22
2021/11/19 10:39:59;;;;;;;3.20;2.60;;;;;;;6.41;84.31;98365.79;101315;1325;61236;-22
2021/11/19 10:43:06;;;;;;;2.90;1.90;;;;;;;6.24;85.04;98357.39;102047;1319;61122;-22
2021/11/19 10:45:40;;;;;;;3.00;2.50;;;;;;;6.69;83.53;98361.60;101943;1320;75368;-22
2021/11/19 10:48:21;;;;;;;5.50;2.70;;;;;;;6.61;83.86;98356.67;102127;1319;73133;-22
2021/11/19 10:51:37;;;;;;;2.70;2.40;;;;;;;6.54;84.22;98371.38;102299;1313;73610;-23
2021/11/19 10:54:35;;;;;;;3.30;2.60;;;;;;;6.68;83.78;98370.44;101935;1319;62128;-23
2021/11/19 10:57:42;;;;;;;2.50;2.00;;;;;;;6.82;83.28;98357.52;101974;1319;181194;-23
2021/11/19 11:00:24;;;;;;;3.10;2.40;;;;;;;6.54;84.24;98351.15;102263;1319;75694;-23
2021/11/19 11:02:54;;;;;;;2.60;2.30;;;;;;;6.57;84.28;98352.49;101755;1317;76193;-23
2021/11/19 11:05:28;;;;;;;3.70;2.50;;;;;;;6.92;82.93;98355.21;101725;1320;74559;-23
2021/11/19 11:08:09;;;;;;;2.10;1.90;;;;;;;6.89;83.08;98345.43;102092;1313;61248;-23
2021/11/19 11:10:54;;;;;;;3.10;2.70;;;;;;;6.58;84.17;98336.16;102012;1314;61225;-23
2021/11/19 11:13:25;;;;;;;1.90;1.30;;;;;;;6.64;84.48;98339.50;101804;1319;75658;-23
2021/11/19 11:16:01;;;;;;;2.70;2.20;;;;;;;7.08;82.31;98331.48;102181;1316;74984;-23
2021/11/19 11:18:34;;;;;;;2.20;2.00;;;;;;;6.91;82.97;98338.68;101656;1316;72958;-22
2021/11/19 11:21:26;;;;;;;3.00;1.90;;;;;;;6.71;84.18;98338.65;101773;1317;62180;-23
2021/11/19 11:24:19;;;;;;;1.90;1.70;;;;;;;6.72;84.18;98341.34;102054;1313;62106;-22
2021/11/19 11:27:06;;;;;;;2.40;1.90;;;;;;;7.00;83.04;98345.27;101852;1316;74474;-23
2021/11/19 11:29:37;;;;;;;2.60;2.00;;;;;;;6.92;83.30;98345.83;101931;1319;76246;-23
2021/11/19 11:32:20;;;;;;;3.20;2.50;;;;;;;6.87;83.81;98343.34;101691;1320;74666;-23
2021/11/19 11:34:48;;;;;;;2.20;1.70;;;;;;;6.73;84.52;98340.38;101814;1320;61863;-23
2021/11/19 11:37:41;;;;;;;2.90;2.20;;;;;;;7.01;83.43;98342.75;102088;1313;61156;-23
2021/11/19 11:40:20;;;;;;;2.40;2.20;;;;;;;6.96;83.63;98349.20;102228;1316;75342;-23
2021/11/19 11:42:51;;;;;;;2.00;1.80;;;;;;;6.82;84.22;98341.79;102123;1313;75221;-22
2021/11/19 11:45:19;;;;;;;2.10;1.60;;;;;;;6.92;84.27;98333.75;101963;1317;74551;-23
2021/11/19 11:48:15;;;;;;;2.60;1.90;;;;;;;7.11;83.52;98335.44;101886;1314;61186;-23
2021/11/19 11:51:06;;;;;;;1.80;1.60;;;;;;;7.00;83.74;98339.07;102030;1317;61193;-23
2021/11/19 11:53:59;;;;;;;2.40;1.70;;;;;;;6.72;84.76;98337.54;101752;1317;74722;-23
2021/11/19 11:56:37;;;;;;;1.90;1.50;;;;;;;7.15;83.22;98333.52;102079;1317;74526;-23
2021/11/19 11:59:32;;;;;;;2.30;1.50;;;;;;;7.23;83.02;98328.45;101699;1317;73605;-23
2021/11/19 12:02:25;;;;;;;2.10;1.80;;;;;;;7.09;83.49;98324.73;101854;1314;61173;-23
2021/11/19 12:05:04;;;;;;;2.40;1.60;;;;;;;6.88;84.77;98333.77;101687;1317;61224;-23
2021/11/19 12:07:48;;;;;;;2.10;1.60;;;;;;;7.28;83.21;98336.68;101717;1314;75538;-23
2021/11/19 12:10:35;;;;;;;2.50;2.00;;;;;;;7.29;82.70;98340.20;101604;1320;76141;-23
2021/11/19 12:13:34;;;;;;;1.80;1.20;;;;;;;7.03;83.56;98337.23;101788;1316;73455;-23
2021/11/19 12:16:09;;;;;;;1.90;1.10;;;;;;;7.05;83.92;98340.42;102226;1313;61856;-23